Time;durP1;ratioP1;P1;durP2;ratioP2;P2;SDS_P1;SDS_P2;PMS_P1;PMS_P2;Temp;Humidity;BMP_temperature;BMP_pressure;BME280_temperature;BME280_humidity;BME280_pressure;Samples;Min_cycle;Max_cycle;Signal;HPM_P1;HPM_P2
2022/08/27 00:02:07;;;;;;;;;;;23.60;57.50;;;;;;6252017;28;19932;-39
2022/08/27 00:05:13;;;;;;;;;;;24.30;57.80;;;;;;6258633;28;19924;-39
2022/08/27 00:08:14;;;;;;;;;;;24.40;58.00;;;;;;6251932;28;19931;-41
2022/08/27 00:11:17;;;;;;;;;;;24.00;57.70;;;;;;6259534;28;20822;-41
2022/08/27 00:14:19;;;;;;;;;;;24.30;57.90;;;;;;6240745;28;21009;-41
2022/08/27 00:17:20;;;;;;;;;;;24.00;57.70;;;;;;6258167;28;20797;-40
2022/08/27 00:20:24;;;;;;;;;;;24.40;57.90;;;;;;6258828;28;20087;-39
2022/08/27 00:23:26;;;;;;;;;;;24.10;57.80;;;;;;6244292;28;19928;-39
2022/08/27 00:26:28;;;;;;;;;;;24.20;57.80;;;;;;6256337;28;19997;-39
2022/08/27 00:29:29;;;;;;;;;;;24.00;57.70;;;;;;6254745;28;20051;-41
2022/08/27 00:32:30;;;;;;;;;;;24.50;58.00;;;;;;6258329;28;20049;-39
2022/08/27 00:35:32;;;;;;;;;;;23.90;57.80;;;;;;6256683;28;20638;-39
2022/08/27 00:38:34;;;;;;;;;;;24.20;57.90;;;;;;6253415;28;19963;-38
2022/08/27 00:41:36;;;;;;;;;;;24.00;57.80;;;;;;6257572;28;20106;-39
2022/08/27 00:44:38;;;;;;;;;;;24.30;58.00;;;;;;6259910;28;20050;-38
2022/08/27 00:47:41;;;;;;;;;;;24.00;57.80;;;;;;6224622;28;20862;-39
2022/08/27 00:50:46;;;;;;;;;;;24.00;57.80;;;;;;6255217;28;20057;-41
2022/08/27 00:53:48;;;;;;;;;;;24.10;57.90;;;;;;6243376;28;19924;-40
2022/08/27 00:56:49;;;;;;;;;;;24.10;57.90;;;;;;6258555;28;19932;-38
2022/08/27 00:59:52;;;;;;;;;;;23.80;57.80;;;;;;6254426;28;19928;-38
2022/08/27 01:02:54;;;;;;;;;;;24.30;58.10;;;;;;6258848;28;20845;-38
2022/08/27 01:05:56;;;;;;;;;;;24.00;57.90;;;;;;6255320;28;20877;-39
2022/08/27 01:09:04;;;;;;;;;;;24.10;58.00;;;;;;6258557;28;19999;-38
2022/08/27 01:12:06;;;;;;;;;;;24.00;57.90;;;;;;6238413;28;20770;-39
2022/08/27 01:15:09;;;;;;;;;;;24.10;58.00;;;;;;6253709;28;21022;-39
2022/08/27 01:18:13;;;;;;;;;;;24.10;58.00;;;;;;6243901;28;19928;-38
2022/08/27 01:21:21;;;;;;;;;;;24.00;58.00;;;;;;6247311;28;19928;-38
2022/08/27 01:24:28;;;;;;;;;;;24.20;58.10;;;;;;6245227;28;19968;-38
2022/08/27 01:27:30;;;;;;;;;;;24.00;58.00;;;;;;6244006;28;20034;-38
2022/08/27 01:30:31;;;;;;;;;;;23.90;58.00;;;;;;6244328;28;20556;-38
2022/08/27 01:33:33;;;;;;;;;;;24.20;58.10;;;;;;6248993;28;20331;-40
2022/08/27 01:36:34;;;;;;;;;;;23.90;58.00;;;;;;6249663;28;20465;-39
2022/08/27 01:39:38;;;;;;;;;;;24.10;58.10;;;;;;6247623;28;20043;-39
2022/08/27 01:42:44;;;;;;;;;;;24.20;58.10;;;;;;6228590;28;19980;-38
2022/08/27 01:45:47;;;;;;;;;;;24.30;58.20;;;;;;6247141;28;20391;-39
2022/08/27 01:48:48;;;;;;;;;;;24.00;58.10;;;;;;6227386;28;20261;-38
2022/08/27 01:51:50;;;;;;;;;;;24.30;58.30;;;;;;6245434;28;20304;-38
2022/08/27 01:54:52;;;;;;;;;;;23.90;58.10;;;;;;6244857;28;19935;-38
2022/08/27 01:57:54;;;;;;;;;;;24.00;58.10;;;;;;6244722;28;19979;-38
2022/08/27 02:00:56;;;;;;;;;;;23.80;58.00;;;;;;6248196;28;20039;-38
2022/08/27 02:03:58;;;;;;;;;;;24.20;58.20;;;;;;6246353;28;19932;-38
2022/08/27 02:06:59;;;;;;;;;;;23.90;58.10;;;;;;6245967;28;20269;-38
2022/08/27 02:10:01;;;;;;;;;;;23.90;58.10;;;;;;6247193;28;20796;-40
2022/08/27 02:13:05;;;;;;;;;;;23.90;58.10;;;;;;6242612;28;19967;-39
2022/08/27 02:16:07;;;;;;;;;;;24.00;58.10;;;;;;6247590;28;20214;-39
2022/08/27 02:19:09;;;;;;;;;;;23.80;58.00;;;;;;6246009;28;20360;-38
2022/08/27 02:22:11;;;;;;;;;;;24.10;58.20;;;;;;6241257;28;19932;-38
2022/08/27 02:25:14;;;;;;;;;;;24.20;58.50;;;;;;6248227;28;20283;-38
2022/08/27 02:28:15;;;;;;;;;;;24.30;58.90;;;;;;6246890;28;20120;-38
2022/08/27 02:31:17;;;;;;;;;;;24.10;58.20;;;;;;6246170;28;20172;-39
2022/08/27 02:34:18;;;;;;;;;;;23.80;58.10;;;;;;6245441;28;19928;-38
2022/08/27 02:37:21;;;;;;;;;;;23.90;58.10;;;;;;6245111;28;20117;-37
2022/08/27 02:40:23;;;;;;;;;;;24.00;58.20;;;;;;6247734;28;20300;-38
2022/08/27 02:43:25;;;;;;;;;;;23.80;58.10;;;;;;6246557;28;19928;-39
2022/08/27 02:46:29;;;;;;;;;;;24.00;58.20;;;;;;6249052;28;19928;-39
2022/08/27 02:49:30;;;;;;;;;;;23.70;58.10;;;;;;6229268;28;20232;-40
2022/08/27 02:52:35;;;;;;;;;;;24.00;58.30;;;;;;6248480;28;19932;-39
2022/08/27 02:55:37;;;;;;;;;;;24.00;58.30;;;;;;6242032;28;20486;-38
2022/08/27 02:58:41;;;;;;;;;;;24.10;58.30;;;;;;6246345;28;20328;-39
2022/08/27 03:01:42;;;;;;;;;;;24.00;58.30;;;;;;6243234;28;20386;-39
2022/08/27 03:04:44;;;;;;;;;;;23.90;58.20;;;;;;6249203;28;19932;-40
2022/08/27 03:07:46;;;;;;;;;;;23.80;58.10;;;;;;6247075;28;20331;-38
2022/08/27 03:10:48;;;;;;;;;;;23.80;58.20;;;;;;6239841;28;20224;-39
2022/08/27 03:13:50;;;;;;;;;;;23.70;58.10;;;;;;6240477;28;19928;-39
2022/08/27 03:16:51;;;;;;;;;;;23.80;58.20;;;;;;6243433;28;20071;-39
2022/08/27 03:19:52;;;;;;;;;;;23.70;58.20;;;;;;6248716;28;19924;-39
2022/08/27 03:22:54;;;;;;;;;;;23.70;58.20;;;;;;6260272;28;20133;-39
2022/08/27 03:25:57;;;;;;;;;;;23.90;58.30;;;;;;6233846;28;20336;-39
2022/08/27 03:28:59;;;;;;;;;;;24.00;58.30;;;;;;6247872;28;20135;-39
2022/08/27 03:32:00;;;;;;;;;;;23.70;58.10;;;;;;6248416;28;20058;-39
2022/08/27 03:35:01;;;;;;;;;;;23.90;58.30;;;;;;6248504;28;20725;-37
2022/08/27 03:38:03;;;;;;;;;;;23.70;58.10;;;;;;6234291;28;20156;-39
2022/08/27 03:41:06;;;;;;;;;;;23.50;58.00;;;;;;6244619;28;20138;-38
2022/08/27 03:44:07;;;;;;;;;;;23.60;58.10;;;;;;6248527;28;20305;-38
2022/08/27 03:47:08;;;;;;;;;;;24.00;58.40;;;;;;6239968;28;20279;-39
2022/08/27 03:50:10;;;;;;;;;;;23.90;58.30;;;;;;6245098;28;20243;-38
2022/08/27 03:53:15;;;;;;;;;;;23.90;58.30;;;;;;6247424;28;20054;-39
2022/08/27 03:56:17;;;;;;;;;;;23.80;58.20;;;;;;6227901;28;20801;-39
2022/08/27 03:59:19;;;;;;;;;;;23.40;58.00;;;;;;6246053;28;20065;-38
2022/08/27 04:02:20;;;;;;;;;;;23.60;58.10;;;;;;6247051;28;19982;-43
2022/08/27 04:05:21;;;;;;;;;;;23.40;58.10;;;;;;6247728;28;20034;-39
2022/08/27 04:08:23;;;;;;;;;;;23.80;58.30;;;;;;6246055;28;20798;-39
2022/08/27 04:11:27;;;;;;;;;;;23.70;58.20;;;;;;6248449;28;19940;-39
2022/08/27 04:14:29;;;;;;;;;;;23.60;58.10;;;;;;6258198;28;20043;-38
2022/08/27 04:17:31;;;;;;;;;;;23.90;58.30;;;;;;6247780;28;19990;-40
2022/08/27 04:20:32;;;;;;;;;;;23.70;58.20;;;;;;6227730;28;20215;-39
2022/08/27 04:23:37;;;;;;;;;;;23.70;58.30;;;;;;6246091;28;20016;-39
2022/08/27 04:26:39;;;;;;;;;;;23.70;58.20;;;;;;6242363;28;20228;-39
2022/08/27 04:29:41;;;;;;;;;;;23.70;58.20;;;;;;6245771;28;19934;-42
2022/08/27 04:32:42;;;;;;;;;;;23.50;58.10;;;;;;6246334;28;20001;-39
2022/08/27 04:35:44;;;;;;;;;;;23.50;58.10;;;;;;6257826;28;19928;-40
2022/08/27 04:38:45;;;;;;;;;;;23.70;58.10;;;;;;6259716;28;20006;-42
2022/08/27 04:41:48;;;;;;;;;;;23.90;58.30;;;;;;6241741;28;20883;-44
2022/08/27 04:44:52;;;;;;;;;;;23.80;58.20;;;;;;6253665;28;20855;-39
2022/08/27 04:47:53;;;;;;;;;;;23.50;58.10;;;;;;6256723;28;20704;-39
2022/08/27 04:50:54;;;;;;;;;;;23.70;58.20;;;;;;6255857;28;19932;-39
2022/08/27 04:53:56;;;;;;;;;;;23.40;58.00;;;;;;6238195;28;19974;-39
2022/08/27 04:57:03;;;;;;;;;;;23.70;58.20;;;;;;6240877;28;20291;-39
2022/08/27 05:00:06;;;;;;;;;;;23.50;58.10;;;;;;6223055;28;20495;-39
2022/08/27 05:03:07;;;;;;;;;;;23.90;58.30;;;;;;6243492;28;19982;-41
2022/08/27 05:06:09;;;;;;;;;;;23.40;58.10;;;;;;6244356;28;19928;-39
2022/08/27 05:09:14;;;;;;;;;;;23.80;58.30;;;;;;6225428;28;20214;-39
2022/08/27 05:12:16;;;;;;;;;;;23.40;58.10;;;;;;6245835;28;19928;-39
2022/08/27 05:15:21;;;;;;;;;;;23.70;58.30;;;;;;6245164;28;19932;-39
2022/08/27 05:18:22;;;;;;;;;;;23.50;58.10;;;;;;6244491;28;19928;-41
2022/08/27 05:21:24;;;;;;;;;;;23.60;58.30;;;;;;6240017;28;20026;-39
2022/08/27 05:24:26;;;;;;;;;;;23.80;58.30;;;;;;6241729;28;19928;-40
2022/08/27 05:27:28;;;;;;;;;;;23.30;58.10;;;;;;6234612;28;19934;-39
2022/08/27 05:30:34;;;;;;;;;;;23.60;58.20;;;;;;6242687;28;20393;-39
2022/08/27 05:33:37;;;;;;;;;;;23.50;58.20;;;;;;6248084;28;20817;-40
2022/08/27 05:36:39;;;;;;;;;;;23.60;58.20;;;;;;6237295;28;19971;-39
2022/08/27 05:39:50;;;;;;;;;;;23.60;58.30;;;;;;6246553;28;20255;-39
2022/08/27 05:42:52;;;;;;;;;;;23.40;58.20;;;;;;6236731;28;20568;-41
2022/08/27 05:45:53;;;;;;;;;;;23.70;58.30;;;;;;6241788;28;20231;-39
2022/08/27 05:48:55;;;;;;;;;;;23.40;58.10;;;;;;6241071;28;20042;-39
2022/08/27 05:51:57;;;;;;;;;;;23.40;58.10;;;;;;6226995;28;19932;-39
2022/08/27 05:54:58;;;;;;;;;;;23.50;58.20;;;;;;6241801;28;20288;-42
2022/08/27 05:58:01;;;;;;;;;;;23.40;58.10;;;;;;6243649;28;20200;-44
2022/08/27 06:01:03;;;;;;;;;;;23.60;58.30;;;;;;6239706;28;19932;-39
2022/08/27 06:04:11;;;;;;;;;;;23.60;58.30;;;;;;6237038;28;19964;-42
2022/08/27 06:07:18;;;;;;;;;;;23.40;58.10;;;;;;6233399;28;20205;-40
2022/08/27 06:10:20;;;;;;;;;;;23.70;58.40;;;;;;6241646;28;20388;-39
2022/08/27 06:13:22;;;;;;;;;;;23.40;58.20;;;;;;6238490;28;19971;-39
2022/08/27 06:16:24;;;;;;;;;;;23.70;58.30;;;;;;6238811;28;20466;-41
2022/08/27 06:19:25;;;;;;;;;;;23.30;58.00;;;;;;6237931;28;20079;-38
2022/08/27 06:22:27;;;;;;;;;;;23.60;58.10;;;;;;6237069;28;20417;-42
2022/08/27 06:25:30;;;;;;;;;;;23.50;58.10;;;;;;6238372;28;19928;-39
2022/08/27 06:28:34;;;;;;;;;;;23.50;58.00;;;;;;6240198;28;20818;-39
2022/08/27 06:31:36;;;;;;;;;;;23.50;57.90;;;;;;6248065;28;20331;-39
2022/08/27 06:34:37;;;;;;;;;;;23.60;57.90;;;;;;6223464;28;20805;-39
2022/08/27 06:37:39;;;;;;;;;;;23.50;57.80;;;;;;6236342;28;19927;-39
2022/08/27 06:40:41;;;;;;;;;;;23.50;57.80;;;;;;6237011;28;20357;-39
2022/08/27 06:43:42;;;;;;;;;;;23.50;57.80;;;;;;6236552;28;20370;-39
2022/08/27 06:46:47;;;;;;;;;;;23.80;58.00;;;;;;6237300;28;20212;-39
2022/08/27 06:49:48;;;;;;;;;;;23.50;57.80;;;;;;6239499;28;20373;-39
2022/08/27 06:52:49;;;;;;;;;;;24.00;58.10;;;;;;6245060;28;19924;-41
2022/08/27 06:55:51;;;;;;;;;;;23.80;58.00;;;;;;6256685;28;20820;-39
2022/08/27 06:58:54;;;;;;;;;;;23.40;57.90;;;;;;6255523;28;19968;-39
2022/08/27 07:01:55;;;;;;;;;;;23.70;58.00;;;;;;6255324;28;19933;-40
2022/08/27 07:04:56;;;;;;;;;;;23.50;58.00;;;;;;6254104;28;19928;-41
2022/08/27 07:07:59;;;;;;;;;;;23.20;57.90;;;;;;6251978;28;19936;-39
2022/08/27 07:11:00;;;;;;;;;;;23.50;58.40;;;;;;6253637;28;20833;-40
2022/08/27 07:14:02;;;;;;;;;;;23.90;58.30;;;;;;6249006;28;19938;-41
2022/08/27 07:17:04;;;;;;;;;;;23.60;58.10;;;;;;6254429;28;19928;-40
2022/08/27 07:20:07;;;;;;;;;;;23.60;58.10;;;;;;6255125;28;21036;-38
2022/08/27 07:23:09;;;;;;;;;;;23.60;58.00;;;;;;6258621;28;20379;-39
2022/08/27 07:26:13;;;;;;;;;;;23.60;58.10;;;;;;6203679;28;19932;-43
2022/08/27 07:29:15;;;;;;;;;;;23.50;58.00;;;;;;6249669;28;19928;-39
2022/08/27 07:32:17;;;;;;;;;;;23.90;58.10;;;;;;6240849;28;20264;-39
2022/08/27 07:35:18;;;;;;;;;;;23.60;58.00;;;;;;6248067;28;20340;-38
2022/08/27 07:38:20;;;;;;;;;;;23.90;58.00;;;;;;6248022;28;20027;-39
2022/08/27 07:41:22;;;;;;;;;;;23.60;57.80;;;;;;6240773;28;20820;-39
2022/08/27 07:44:31;;;;;;;;;;;23.60;57.80;;;;;;6242639;28;20157;-39
2022/08/27 07:47:36;;;;;;;;;;;23.90;57.90;;;;;;6239007;28;20760;-39
2022/08/27 07:50:37;;;;;;;;;;;23.80;57.80;;;;;;6226766;28;20257;-39
2022/08/27 07:53:39;;;;;;;;;;;23.70;57.80;;;;;;6235734;28;20460;-39
2022/08/27 07:56:40;;;;;;;;;;;23.90;57.90;;;;;;6251089;28;19928;-39
2022/08/27 07:59:42;;;;;;;;;;;23.40;57.60;;;;;;6240337;28;19981;-41
2022/08/27 08:02:45;;;;;;;;;;;23.70;57.80;;;;;;6236295;28;19968;-39
2022/08/27 08:05:48;;;;;;;;;;;23.90;57.80;;;;;;6231262;28;20655;-39
2022/08/27 08:08:49;;;;;;;;;;;23.70;57.70;;;;;;6232350;28;19959;-40
2022/08/27 08:11:51;;;;;;;;;;;23.60;57.70;;;;;;6226381;28;20088;-39
2022/08/27 08:14:56;;;;;;;;;;;23.90;58.00;;;;;;6208113;28;20857;-40
2022/08/27 08:18:01;;;;;;;;;;;23.80;58.00;;;;;;6230543;28;20781;-43
2022/08/27 08:21:04;;;;;;;;;;;23.60;57.90;;;;;;6230736;28;19979;-40
2022/08/27 08:24:06;;;;;;;;;;;23.70;57.90;;;;;;6236482;28;19931;-39
2022/08/27 08:27:07;;;;;;;;;;;23.60;57.80;;;;;;6237411;28;19970;-42
2022/08/27 08:30:10;;;;;;;;;;;23.80;57.90;;;;;;6236632;28;19934;-41
2022/08/27 08:33:12;;;;;;;;;;;23.70;57.80;;;;;;6219778;28;19958;-39
2022/08/27 08:36:14;;;;;;;;;;;23.90;57.90;;;;;;6238849;28;19928;-39
2022/08/27 08:39:17;;;;;;;;;;;23.50;57.60;;;;;;6229065;28;19928;-39
2022/08/27 08:42:27;;;;;;;;;;;23.80;57.90;;;;;;6214137;28;19934;-39
2022/08/27 08:45:31;;;;;;;;;;;23.50;57.60;;;;;;6227583;28;21926;-39
2022/08/27 08:48:34;;;;;;;;;;;23.80;57.80;;;;;;6216978;28;20195;-39
2022/08/27 08:51:39;;;;;;;;;;;23.90;57.80;;;;;;6233805;28;20668;-39
2022/08/27 08:54:40;;;;;;;;;;;24.20;57.90;;;;;;6224876;28;20293;-40
2022/08/27 08:57:45;;;;;;;;;;;23.60;57.70;;;;;;6218111;28;20854;-39
2022/08/27 09:00:52;;;;;;;;;;;24.00;57.80;;;;;;6214956;28;19928;-39
2022/08/27 09:03:55;;;;;;;;;;;23.60;57.50;;;;;;6226298;28;20125;-39
2022/08/27 09:06:58;;;;;;;;;;;23.80;57.70;;;;;;6229947;28;19932;-40
2022/08/27 09:10:01;;;;;;;;;;;24.00;57.90;;;;;;6226824;28;20115;-41
2022/08/27 09:13:04;;;;;;;;;;;23.50;57.50;;;;;;6228047;28;20207;-39
2022/08/27 09:16:06;;;;;;;;;;;23.70;57.50;;;;;;6227974;28;20048;-40
2022/08/27 09:19:08;;;;;;;;;;;23.60;57.40;;;;;;6232200;28;19929;-40
2022/08/27 09:22:17;;;;;;;;;;;23.90;57.60;;;;;;6232703;28;20446;-39
2022/08/27 09:25:22;;;;;;;;;;;23.90;57.50;;;;;;6213985;28;20288;-41
2022/08/27 09:31:51;;;;;;;;;;;23.90;57.60;;;;;;6226700;28;20281;-39
2022/08/27 09:34:56;;;;;;;;;;;23.90;57.60;;;;;;6202792;28;20361;-39
2022/08/27 09:38:00;;;;;;;;;;;23.90;57.50;;;;;;6209014;28;19975;-39
2022/08/27 09:41:04;;;;;;;;;;;24.00;57.60;;;;;;6223964;28;20280;-39
2022/08/27 09:44:10;;;;;;;;;;;23.90;57.50;;;;;;6207000;28;19932;-39
2022/08/27 09:47:14;;;;;;;;;;;24.20;57.70;;;;;;6233942;28;20083;-39
2022/08/27 09:50:17;;;;;;;;;;;23.70;57.40;;;;;;6237268;28;20028;-39
2022/08/27 09:53:20;;;;;;;;;;;24.00;57.50;;;;;;6212223;28;20214;-39
2022/08/27 09:56:24;;;;;;;;;;;24.10;57.50;;;;;;6226496;28;20308;-39
2022/08/27 09:59:27;;;;;;;;;;;24.10;57.50;;;;;;6228490;28;20407;-39
2022/08/27 10:02:29;;;;;;;;;;;24.00;57.90;;;;;;6211086;28;20119;-39
2022/08/27 10:05:32;;;;;;;;;;;23.70;57.10;;;;;;6225232;28;20716;-40
2022/08/27 10:08:37;;;;;;;;;;;24.30;57.40;;;;;;6226937;28;20459;-39
2022/08/27 10:11:41;;;;;;;;;;;24.20;57.30;;;;;;6228287;28;20206;-39
2022/08/27 10:14:48;;;;;;;;;;;24.20;57.20;;;;;;6210913;28;20358;-41
2022/08/27 10:17:55;;;;;;;;;;;23.70;56.90;;;;;;6227471;28;19928;-39
2022/08/27 10:21:02;;;;;;;;;;;23.70;56.80;;;;;;6227779;28;20011;-39
2022/08/27 10:24:14;;;;;;;;;;;24.20;57.10;;;;;;6210299;28;20696;-39
2022/08/27 10:27:19;;;;;;;;;;;24.30;57.10;;;;;;6229281;28;19956;-39
2022/08/27 10:30:24;;;;;;;;;;;24.00;56.90;;;;;;6231452;28;19928;-39
2022/08/27 10:33:31;;;;;;;;;;;24.20;57.00;;;;;;6225280;28;19929;-40
2022/08/27 10:36:40;;;;;;;;;;;24.00;56.80;;;;;;6234112;28;20325;-39
2022/08/27 10:39:48;;;;;;;;;;;24.00;56.80;;;;;;6235728;28;20498;-39
2022/08/27 10:42:58;;;;;;;;;;;24.30;56.90;;;;;;6234018;28;20063;-40
2022/08/27 10:46:05;;;;;;;;;;;24.20;56.80;;;;;;6238941;28;20050;-41
2022/08/27 10:49:12;;;;;;;;;;;24.40;56.90;;;;;;6234443;28;20181;-41
2022/08/27 10:52:24;;;;;;;;;;;24.40;57.00;;;;;;6228105;28;20236;-40
2022/08/27 10:55:28;;;;;;;;;;;24.10;56.80;;;;;;6226167;28;19928;-39
2022/08/27 10:58:38;;;;;;;;;;;24.30;56.80;;;;;;6207462;28;20737;-39
2022/08/27 11:01:46;;;;;;;;;;;24.10;56.70;;;;;;6228568;28;19932;-40
2022/08/27 11:04:51;;;;;;;;;;;24.50;56.80;;;;;;6226230;28;19954;-39
2022/08/27 11:07:54;;;;;;;;;;;24.40;56.80;;;;;;6227147;28;20260;-39
2022/08/27 11:10:57;;;;;;;;;;;24.40;56.80;;;;;;6229396;28;19928;-39
2022/08/27 11:13:59;;;;;;;;;;;24.50;56.80;;;;;;6234125;28;19932;-40
2022/08/27 11:17:04;;;;;;;;;;;24.40;56.70;;;;;;6211115;28;20089;-39
2022/08/27 11:20:09;;;;;;;;;;;24.40;56.70;;;;;;6227384;28;20335;-39
2022/08/27 11:23:13;;;;;;;;;;;24.50;56.70;;;;;;6227418;28;20076;-41
2022/08/27 11:26:15;;;;;;;;;;;24.20;56.60;;;;;;6211040;28;19940;-40
2022/08/27 11:29:21;;;;;;;;;;;24.50;56.70;;;;;;6227889;28;20066;-39
2022/08/27 11:32:25;;;;;;;;;;;24.20;56.50;;;;;;6224585;28;20321;-38
2022/08/27 11:35:31;;;;;;;;;;;24.20;56.50;;;;;;6229695;28;20410;-41
2022/08/27 11:38:40;;;;;;;;;;;24.50;56.90;;;;;;6229363;28;19929;-41
2022/08/27 11:41:52;;;;;;;;;;;24.50;56.70;;;;;;6227369;28;19998;-39
2022/08/27 11:44:56;;;;;;;;;;;24.50;56.60;;;;;;6230057;28;20024;-39
2022/08/27 11:47:59;;;;;;;;;;;24.50;56.70;;;;;;6228951;28;19934;-39
2022/08/27 11:51:03;;;;;;;;;;;24.50;56.60;;;;;;6209294;28;20081;-41
2022/08/27 11:54:06;;;;;;;;;;;24.50;56.60;;;;;;6230009;28;20391;-40
2022/08/27 11:57:13;;;;;;;;;;;24.10;56.40;;;;;;6237005;28;20580;-40
2022/08/27 12:00:16;;;;;;;;;;;24.30;56.50;;;;;;6221998;28;20058;-39
2022/08/27 12:03:22;;;;;;;;;;;24.20;56.40;;;;;;6240409;28;20013;-41
2022/08/27 12:06:25;;;;;;;;;;;24.60;56.60;;;;;;6220248;28;20271;-39
2022/08/27 12:09:26;;;;;;;;;;;24.30;56.40;;;;;;6235451;28;19928;-39
2022/08/27 12:12:32;;;;;;;;;;;24.60;56.60;;;;;;6230285;28;19968;-39
2022/08/27 12:15:43;;;;;;;;;;;24.60;56.40;;;;;;6226156;28;20120;-39
2022/08/27 12:18:54;;;;;;;;;;;24.60;56.50;;;;;;6232893;28;20041;-41
2022/08/27 12:22:04;;;;;;;;;;;24.30;56.30;;;;;;6231730;28;20341;-38
2022/08/27 12:25:06;;;;;;;;;;;24.60;56.50;;;;;;6230256;28;20277;-39
2022/08/27 12:28:08;;;;;;;;;;;24.60;56.50;;;;;;6228628;28;19936;-39
2022/08/27 12:31:10;;;;;;;;;;;24.60;56.40;;;;;;6232064;28;20575;-39
2022/08/27 12:34:13;;;;;;;;;;;24.50;56.30;;;;;;6240292;28;20487;-40
2022/08/27 12:37:20;;;;;;;;;;;24.40;56.30;;;;;;6221857;28;20153;-38
2022/08/27 12:40:23;;;;;;;;;;;24.50;56.30;;;;;;6241170;28;20623;-40
2022/08/27 12:43:26;;;;;;;;;;;24.50;56.30;;;;;;6236935;28;19936;-39
2022/08/27 12:46:28;;;;;;;;;;;24.70;56.30;;;;;;6233641;28;20052;-40
2022/08/27 12:49:35;;;;;;;;;;;24.50;56.20;;;;;;6231824;28;20190;-39
2022/08/27 12:52:48;;;;;;;;;;;24.60;56.20;;;;;;6213738;28;19929;-39
2022/08/27 12:55:57;;;;;;;;;;;24.50;56.10;;;;;;6226032;28;20365;-39
2022/08/27 12:59:03;;;;;;;;;;;24.40;56.10;;;;;;6221487;28;21806;-39
2022/08/27 13:02:12;;;;;;;;;;;24.50;56.10;;;;;;6206214;28;19934;-40
2022/08/27 13:05:16;;;;;;;;;;;24.70;56.20;;;;;;6232213;28;20484;-40
2022/08/27 13:08:20;;;;;;;;;;;24.60;56.10;;;;;;6231637;28;19978;-39
2022/08/27 13:11:23;;;;;;;;;;;24.50;56.00;;;;;;6230492;28;20414;-39
2022/08/27 13:14:26;;;;;;;;;;;24.70;56.10;;;;;;6236475;28;20434;-39
2022/08/27 13:17:27;;;;;;;;;;;24.40;55.90;;;;;;6238110;28;20185;-39
2022/08/27 13:20:29;;;;;;;;;;;24.70;56.10;;;;;;6232788;28;19928;-39
2022/08/27 13:23:32;;;;;;;;;;;24.50;56.00;;;;;;6222961;28;20245;-41
2022/08/27 13:26:36;;;;;;;;;;;24.70;56.10;;;;;;6224996;28;20490;-39
2022/08/27 13:29:37;;;;;;;;;;;24.60;56.00;;;;;;6224479;28;20006;-40
2022/08/27 13:32:39;;;;;;;;;;;24.30;55.70;;;;;;6231196;28;20782;-39
2022/08/27 13:35:42;;;;;;;;;;;24.40;55.80;;;;;;6234472;28;19928;-39
2022/08/27 13:38:44;;;;;;;;;;;24.50;55.80;;;;;;6212469;28;20287;-40
2022/08/27 13:41:51;;;;;;;;;;;24.70;55.90;;;;;;6236126;28;20402;-39
2022/08/27 13:44:55;;;;;;;;;;;24.50;55.80;;;;;;6234331;28;19939;-39
2022/08/27 13:47:58;;;;;;;;;;;24.70;55.80;;;;;;6231567;28;20899;-39
2022/08/27 13:51:00;;;;;;;;;;;24.80;55.80;;;;;;6232172;28;19936;-41
2022/08/27 13:54:12;;;;;;;;;;;24.80;55.80;;;;;;6228895;28;20050;-39
2022/08/27 13:57:22;;;;;;;;;;;24.70;55.70;;;;;;6232809;28;20530;-39
2022/08/27 14:00:25;;;;;;;;;;;24.50;55.60;;;;;;6233879;28;20039;-39
2022/08/27 14:03:31;;;;;;;;;;;24.90;55.80;;;;;;6232629;28;20347;-39
2022/08/27 14:06:34;;;;;;;;;;;24.50;55.50;;;;;;6214153;28;20200;-39
2022/08/27 14:09:41;;;;;;;;;;;24.60;55.60;;;;;;6211180;28;20273;-39
2022/08/27 14:12:43;;;;;;;;;;;24.70;55.50;;;;;;6230522;28;19932;-39
2022/08/27 14:15:47;;;;;;;;;;;24.80;55.60;;;;;;6217235;28;19928;-39
2022/08/27 14:18:50;;;;;;;;;;;24.70;55.50;;;;;;6210864;28;19928;-39
2022/08/27 14:22:01;;;;;;;;;;;24.80;55.50;;;;;;6230029;28;21495;-39
2022/08/27 14:25:04;;;;;;;;;;;24.50;55.30;;;;;;6231277;28;20004;-40
2022/08/27 14:28:08;;;;;;;;;;;24.90;55.50;;;;;;6230580;28;21146;-39
2022/08/27 14:31:10;;;;;;;;;;;24.80;55.40;;;;;;6227324;28;20138;-40
2022/08/27 14:34:13;;;;;;;;;;;24.90;55.50;;;;;;6232267;28;20563;-42
2022/08/27 14:37:14;;;;;;;;;;;24.70;55.30;;;;;;6211278;28;20507;-39
2022/08/27 14:40:17;;;;;;;;;;;24.60;55.20;;;;;;6229796;28;19964;-38
2022/08/27 14:43:19;;;;;;;;;;;24.90;55.30;;;;;;6227669;28;19955;-39
2022/08/27 14:46:25;;;;;;;;;;;24.70;55.20;;;;;;6229754;28;20274;-41
2022/08/27 14:49:30;;;;;;;;;;;25.10;55.40;;;;;;6215140;28;20219;-39
2022/08/27 14:52:31;;;;;;;;;;;24.60;55.10;;;;;;6211471;28;20096;-40
2022/08/27 14:55:33;;;;;;;;;;;24.70;55.10;;;;;;6233640;28;20605;-39
2022/08/27 14:58:35;;;;;;;;;;;24.80;55.10;;;;;;6231698;28;20854;-39
2022/08/27 15:01:36;;;;;;;;;;;24.90;55.10;;;;;;6211951;28;19927;-39
2022/08/27 15:04:38;;;;;;;;;;;24.80;55.10;;;;;;6229560;28;20441;-39
2022/08/27 15:07:39;;;;;;;;;;;24.70;55.00;;;;;;6228272;28;20398;-40
2022/08/27 15:10:48;;;;;;;;;;;24.80;55.00;;;;;;6234062;28;20216;-39
2022/08/27 15:13:50;;;;;;;;;;;24.60;54.90;;;;;;6237279;28;19928;-39
2022/08/27 15:16:52;;;;;;;;;;;25.10;55.20;;;;;;6233914;28;19928;-41
2022/08/27 15:19:53;;;;;;;;;;;25.00;55.00;;;;;;6221459;28;20190;-42
2022/08/27 15:22:55;;;;;;;;;;;24.70;54.80;;;;;;6234175;28;19974;-41
2022/08/27 15:25:57;;;;;;;;;;;24.90;54.90;;;;;;6236215;28;20210;-39
2022/08/27 15:29:01;;;;;;;;;;;24.70;54.80;;;;;;6230643;28;19928;-39
2022/08/27 15:32:09;;;;;;;;;;;24.80;54.80;;;;;;6232994;28;20357;-40
2022/08/27 15:35:12;;;;;;;;;;;24.90;54.90;;;;;;6214610;28;20837;-42
2022/08/27 15:38:14;;;;;;;;;;;24.70;54.70;;;;;;6213556;28;20058;-38
2022/08/27 15:41:15;;;;;;;;;;;24.90;54.80;;;;;;6236354;28;20561;-39
2022/08/27 15:44:17;;;;;;;;;;;24.70;54.60;;;;;;6232785;28;21352;-39
2022/08/27 15:47:18;;;;;;;;;;;24.70;54.60;;;;;;6228627;28;21278;-42
2022/08/27 15:50:21;;;;;;;;;;;24.90;54.70;;;;;;6233003;28;19932;-43
2022/08/27 15:53:24;;;;;;;;;;;24.70;55.20;;;;;;6238315;28;19932;-39
2022/08/27 15:56:27;;;;;;;;;;;24.70;54.50;;;;;;6234808;28;20349;-39
2022/08/27 15:59:36;;;;;;;;;;;24.50;54.40;;;;;;6216328;28;20741;-41
2022/08/27 16:02:39;;;;;;;;;;;24.80;54.60;;;;;;6235772;28;20201;-39
2022/08/27 16:05:43;;;;;;;;;;;24.90;54.60;;;;;;6232152;28;20493;-40
2022/08/27 16:08:44;;;;;;;;;;;24.70;54.40;;;;;;6230789;28;20059;-40
2022/08/27 16:11:46;;;;;;;;;;;25.20;54.80;;;;;;6230042;28;20115;-39
2022/08/27 16:14:48;;;;;;;;;;;25.10;54.60;;;;;;6231014;28;20470;-41
2022/08/27 16:17:51;;;;;;;;;;;24.90;54.60;;;;;;6235957;28;20212;-40
2022/08/27 16:20:53;;;;;;;;;;;24.80;54.50;;;;;;6236107;28;20300;-39
2022/08/27 16:23:54;;;;;;;;;;;25.20;54.70;;;;;;6236837;28;20414;-40
2022/08/27 16:26:56;;;;;;;;;;;25.20;54.70;;;;;;6232500;28;19932;-39
2022/08/27 16:30:01;;;;;;;;;;;25.10;54.60;;;;;;6220226;28;20367;-38
2022/08/27 16:33:02;;;;;;;;;;;24.90;54.40;;;;;;6234644;28;19932;-39
2022/08/27 16:36:04;;;;;;;;;;;25.00;54.50;;;;;;6233350;28;20931;-39
2022/08/27 16:39:05;;;;;;;;;;;25.10;54.50;;;;;;6232893;28;20375;-39
2022/08/27 16:42:08;;;;;;;;;;;24.70;54.30;;;;;;6236751;28;20168;-39
2022/08/27 16:45:10;;;;;;;;;;;25.20;54.50;;;;;;6232088;28;20173;-38
2022/08/27 16:51:32;;;;;;;;;;;24.90;54.20;;;;;;6216097;28;20046;-39
2022/08/27 16:54:36;;;;;;;;;;;24.90;54.10;;;;;;6213979;28;19932;-40
2022/08/27 16:57:38;;;;;;;;;;;25.10;54.20;;;;;;6231667;28;20440;-39
2022/08/27 17:00:41;;;;;;;;;;;24.80;54.00;;;;;;6235161;28;19963;-40
2022/08/27 17:03:44;;;;;;;;;;;25.00;54.10;;;;;;6231808;28;20244;-41
2022/08/27 17:07:05;;;;;;;;;;;25.10;54.20;;;;;;6218833;28;19940;-39
2022/08/27 17:10:06;;;;;;;;;;;25.20;54.20;;;;;;6233914;28;20843;-44
2022/08/27 17:13:08;;;;;;;;;;;25.00;54.00;;;;;;6234231;28;19975;-39
2022/08/27 17:16:10;;;;;;;;;;;25.30;54.30;;;;;;6237742;28;20254;-39
2022/08/27 17:19:11;;;;;;;;;;;25.10;54.10;;;;;;6232534;28;20600;-39
2022/08/27 17:22:18;;;;;;;;;;;25.10;54.10;;;;;;6232284;28;20281;-37
2022/08/27 17:25:19;;;;;;;;;;;25.10;54.10;;;;;;6233307;28;20244;-39
2022/08/27 17:28:24;;;;;;;;;;;25.30;54.20;;;;;;6227487;28;20272;-39
2022/08/27 17:31:28;;;;;;;;;;;25.20;54.20;;;;;;6233736;28;19932;-39
2022/08/27 17:34:30;;;;;;;;;;;25.20;54.10;;;;;;6235097;28;19932;-39
2022/08/27 17:37:31;;;;;;;;;;;25.20;54.20;;;;;;6231102;28;19928;-40
2022/08/27 17:40:32;;;;;;;;;;;25.00;54.00;;;;;;6233224;28;20324;-39
2022/08/27 17:43:34;;;;;;;;;;;24.90;53.90;;;;;;6233300;28;20259;-39
2022/08/27 17:46:36;;;;;;;;;;;25.10;54.00;;;;;;6217929;28;20927;-38
2022/08/27 17:49:38;;;;;;;;;;;25.20;54.10;;;;;;6233605;28;20486;-39
2022/08/27 17:52:39;;;;;;;;;;;25.10;54.00;;;;;;6233315;28;20212;-41